createdAt,value
2018-12-16T00:00:44.152Z,12.73
2018-12-16T00:03:12.437Z,8.30
2018-12-16T00:05:40.838Z,12.58
2018-12-16T00:08:09.375Z,10.08
2018-12-16T00:10:37.548Z,11.97
2018-12-16T00:13:05.783Z,8.58
2018-12-16T00:15:35.564Z,10.80
2018-12-16T00:18:03.760Z,11.95
2018-12-16T00:20:32.190Z,12.98
2018-12-16T00:23:00.496Z,11.15
2018-12-16T00:25:29.156Z,11.00
2018-12-16T00:27:58.141Z,11.45
2018-12-16T00:30:26.630Z,5.45
2018-12-16T00:32:55.062Z,12.07
2018-12-16T00:35:24.193Z,6.55
2018-12-16T00:37:52.843Z,7.12
2018-12-16T00:40:21.093Z,12.65
2018-12-16T00:42:49.594Z,12.28
2018-12-16T00:45:17.797Z,6.30
2018-12-16T00:47:47.525Z,10.60
2018-12-16T00:50:15.954Z,12.28
2018-12-16T00:52:44.183Z,9.35
2018-12-16T00:55:12.696Z,10.13
2018-12-16T00:57:40.846Z,11.88
2018-12-16T01:00:13.192Z,12.35
2018-12-16T01:02:42.226Z,10.35
2018-12-16T01:05:11.394Z,8.98
2018-12-16T01:07:39.721Z,12.18
2018-12-16T01:10:09.786Z,14.03
2018-12-16T01:12:37.954Z,10.95
2018-12-16T01:15:06.514Z,10.25
2018-12-16T01:17:34.781Z,13.40
2018-12-16T01:20:03.592Z,13.22
2018-12-16T01:22:32.197Z,12.98
2018-12-16T01:25:00.870Z,12.75
2018-12-16T01:27:29.442Z,11.57
2018-12-16T01:29:57.707Z,14.20
2018-12-16T01:32:27.765Z,14.80
2018-12-16T01:34:56.633Z,14.55
2018-12-16T01:37:25.955Z,12.30
2018-12-16T01:39:54.179Z,14.53
2018-12-16T01:42:22.359Z,11.28
2018-12-16T01:44:50.674Z,12.93
2018-12-16T01:47:19.210Z,12.75
2018-12-16T01:49:47.359Z,10.78
2018-12-16T01:52:15.698Z,13.72
2018-12-16T01:54:43.814Z,12.70
2018-12-16T01:57:12.298Z,14.18
2018-12-16T01:59:41.234Z,13.78
2018-12-16T02:02:09.470Z,13.85
2018-12-16T02:04:38.595Z,13.53
2018-12-16T02:07:06.871Z,13.95
2018-12-16T02:09:35.283Z,11.63
2018-12-16T02:12:04.327Z,13.25
2018-12-16T02:14:32.536Z,13.75
2018-12-16T02:17:02.150Z,12.18
2018-12-16T02:19:30.321Z,12.10
2018-12-16T02:21:58.782Z,11.20
2018-12-16T02:24:27.233Z,12.65
2018-12-16T02:26:55.790Z,11.70
2018-12-16T02:29:24.653Z,11.88
2018-12-16T02:31:52.748Z,9.93
2018-12-16T02:34:20.911Z,11.73
2018-12-16T02:36:49.026Z,12.65
2018-12-16T02:39:17.280Z,12.13
2018-12-16T02:41:45.693Z,12.10
2018-12-16T02:44:14.787Z,11.60
2018-12-16T02:46:43.774Z,13.05
2018-12-16T02:49:12.863Z,13.28
2018-12-16T02:51:42.087Z,11.63
2018-12-16T02:54:10.327Z,12.05
2018-12-16T02:56:38.571Z,11.68
2018-12-16T02:59:07.496Z,13.58
2018-12-16T03:01:36.559Z,12.65
2018-12-16T03:04:05.820Z,12.75
2018-12-16T03:06:33.902Z,13.43
2018-12-16T03:09:02.020Z,13.00
2018-12-16T03:11:30.803Z,11.90
2018-12-16T03:13:59.069Z,9.50
2018-12-16T03:16:27.473Z,13.65
2018-12-16T03:18:56.302Z,12.63
2018-12-16T03:21:24.789Z,11.70
2018-12-16T03:23:53.655Z,11.40
2018-12-16T03:26:22.962Z,10.60
2018-12-16T03:28:51.761Z,13.25
2018-12-16T03:33:53.776Z,12.33
2018-12-16T03:36:21.917Z,9.85
2018-12-16T03:38:50.353Z,14.73
2018-12-16T03:41:18.635Z,10.75
2018-12-16T03:43:46.758Z,9.75
2018-12-16T03:46:15.370Z,11.78
2018-12-16T03:48:44.024Z,11.97
2018-12-16T03:51:12.285Z,13.88
2018-12-16T03:53:40.577Z,14.10
2018-12-16T03:56:09.198Z,12.70
2018-12-16T03:58:43.897Z,13.60
2018-12-16T04:01:12.954Z,11.45
2018-12-16T04:03:41.234Z,11.05
2018-12-16T04:06:09.494Z,11.08
2018-12-16T04:08:37.599Z,10.90
2018-12-16T04:11:05.726Z,11.40
2018-12-16T04:13:33.930Z,10.93
2018-12-16T04:16:03.170Z,12.37
2018-12-16T04:18:31.450Z,8.80
2018-12-16T04:20:59.593Z,10.65
2018-12-16T04:23:36.334Z,11.28
2018-12-16T04:26:04.634Z,13.35
2018-12-16T04:28:32.877Z,12.85
2018-12-16T04:31:00.978Z,11.88
2018-12-16T04:33:29.232Z,12.88
2018-12-16T04:35:57.522Z,11.90
2018-12-16T04:38:26.154Z,13.58
2018-12-16T04:40:54.360Z,11.97
2018-12-16T04:43:23.019Z,12.05
2018-12-16T04:45:51.514Z,11.30
2018-12-16T04:48:19.628Z,13.28
2018-12-16T04:50:47.912Z,8.98
2018-12-16T04:53:16.665Z,11.33
2018-12-16T04:55:45.479Z,14.50
2018-12-16T04:58:13.556Z,11.48
2018-12-16T05:00:42.952Z,14.47
2018-12-16T05:03:11.604Z,14.78
2018-12-16T05:05:40.055Z,12.65
2018-12-16T05:08:08.169Z,13.35
2018-12-16T05:10:36.479Z,11.75
2018-12-16T05:13:04.761Z,11.70
2018-12-16T05:15:34.582Z,15.38
2018-12-16T05:18:02.868Z,17.02
2018-12-16T05:20:31.092Z,17.23
2018-12-16T05:22:59.733Z,14.38
2018-12-16T05:25:28.006Z,18.10
2018-12-16T05:27:56.577Z,18.55
2018-12-16T05:30:24.868Z,17.73
2018-12-16T05:32:53.264Z,17.23
2018-12-16T05:35:21.630Z,18.30
2018-12-16T05:37:50.070Z,17.98
2018-12-16T05:40:20.267Z,18.05
2018-12-16T05:42:49.126Z,18.10
2018-12-16T05:45:17.578Z,17.35
2018-12-16T05:47:46.211Z,17.10
2018-12-16T05:50:14.882Z,17.48
2018-12-16T05:52:43.366Z,18.95
2018-12-16T05:55:12.413Z,13.72
2018-12-16T05:57:40.973Z,19.73
2018-12-16T06:00:10.782Z,17.60
2018-12-16T06:02:39.204Z,17.62
2018-12-16T06:05:07.447Z,17.62
2018-12-16T06:07:38.610Z,14.95
2018-12-16T06:10:07.014Z,11.12
2018-12-16T06:12:35.435Z,18.05
2018-12-16T06:15:03.713Z,16.23
2018-12-16T06:17:31.924Z,18.80
2018-12-16T06:20:00.484Z,14.25
2018-12-16T06:22:28.597Z,19.02
2018-12-16T06:24:56.702Z,17.05
2018-12-16T06:27:25.342Z,22.80
2018-12-16T06:29:53.936Z,18.45
2018-12-16T06:32:22.112Z,17.87
2018-12-16T06:34:50.317Z,17.60
2018-12-16T06:37:18.656Z,16.32
2018-12-16T06:39:46.984Z,17.02
2018-12-16T06:42:15.145Z,18.82
2018-12-16T06:44:43.381Z,18.62
2018-12-16T06:47:13.374Z,18.55
2018-12-16T06:49:41.534Z,18.45
2018-12-16T06:52:12.283Z,19.02
2018-12-16T06:54:40.456Z,19.12
2018-12-16T06:57:08.692Z,18.55
2018-12-16T06:59:37.283Z,19.17
2018-12-16T07:02:05.596Z,17.98
2018-12-16T07:04:33.855Z,18.35
2018-12-16T07:07:02.073Z,18.45
2018-12-16T07:09:30.420Z,17.85
2018-12-16T07:11:59.142Z,16.60
2018-12-16T07:14:27.504Z,17.23
2018-12-16T07:16:56.116Z,18.42
2018-12-16T07:19:24.492Z,17.73
2018-12-16T07:21:53.613Z,21.00
2018-12-16T07:24:21.766Z,20.17
2018-12-16T07:26:50.893Z,18.60
2018-12-16T07:29:19.313Z,20.10
2018-12-16T07:31:47.838Z,17.73
2018-12-16T07:34:16.833Z,19.65
2018-12-16T07:36:45.178Z,17.25
2018-12-16T07:39:13.445Z,19.65
2018-12-16T07:41:42.473Z,18.62
2018-12-16T07:44:10.652Z,17.75
2018-12-16T07:46:39.193Z,19.73
2018-12-16T07:49:07.614Z,17.27
2018-12-16T07:51:36.004Z,19.07
2018-12-16T07:54:04.521Z,17.55
2018-12-16T07:56:32.780Z,18.42
2018-12-16T07:59:01.049Z,16.87
2018-12-16T08:01:30.041Z,18.10
2018-12-16T08:03:58.591Z,19.67
2018-12-16T08:06:26.931Z,17.20
2018-12-16T08:08:55.319Z,18.70
2018-12-16T08:11:24.477Z,16.62
2018-12-16T08:13:54.817Z,18.15
2018-12-16T08:16:23.696Z,17.67
2018-12-16T08:18:52.250Z,18.85
2018-12-16T08:21:20.626Z,19.05
2018-12-16T08:23:48.867Z,18.73
2018-12-16T08:26:17.230Z,18.40
2018-12-16T08:28:45.728Z,18.07
2018-12-16T08:31:13.992Z,20.10
2018-12-16T08:33:42.104Z,19.57
2018-12-16T08:36:10.373Z,20.20
2018-12-16T08:38:39.021Z,18.40
2018-12-16T08:41:07.503Z,19.40
2018-12-16T08:43:36.017Z,21.23
2018-12-16T08:46:04.831Z,17.85
2018-12-16T08:48:33.028Z,17.82
2018-12-16T08:51:01.795Z,18.65
2018-12-16T08:53:30.157Z,17.60
2018-12-16T08:55:58.396Z,20.60
2018-12-16T08:58:27.634Z,20.80
2018-12-16T09:00:56.334Z,17.32
2018-12-16T09:03:25.051Z,18.55
2018-12-16T09:05:54.007Z,18.60
2018-12-16T09:08:22.223Z,18.75
2018-12-16T09:10:50.422Z,18.50
2018-12-16T09:13:18.787Z,19.45
2018-12-16T09:15:47.190Z,19.00
2018-12-16T09:18:15.581Z,18.07
2018-12-16T09:20:44.522Z,19.40
2018-12-16T09:23:12.941Z,19.70
2018-12-16T09:25:41.134Z,17.42
2018-12-16T09:28:09.756Z,18.57
2018-12-16T09:30:37.824Z,16.95
2018-12-16T09:33:06.920Z,20.37
2018-12-16T09:35:36.061Z,18.15
2018-12-16T09:38:04.342Z,19.00
2018-12-16T09:40:33.782Z,19.60
2018-12-16T09:43:02.081Z,19.77
2018-12-16T09:45:30.806Z,20.68
2018-12-16T09:47:59.145Z,21.55
2018-12-16T09:50:27.592Z,19.52
2018-12-16T09:52:55.680Z,21.00
2018-12-16T09:55:23.958Z,18.10
2018-12-16T09:57:52.289Z,19.35
2018-12-16T10:00:20.869Z,20.35
2018-12-16T10:02:49.055Z,20.90
2018-12-16T10:05:17.384Z,21.37
2018-12-16T10:07:46.384Z,20.40
2018-12-16T10:10:14.596Z,26.07
2018-12-16T10:12:43.032Z,29.12
2018-12-16T10:15:11.353Z,55.30
2018-12-16T10:17:39.661Z,22.30
2018-12-16T10:20:09.688Z,18.10
2018-12-16T10:22:37.876Z,17.20
2018-12-16T10:25:06.126Z,18.23
2018-12-16T10:27:34.602Z,18.77
2018-12-16T10:30:02.882Z,19.30
2018-12-16T10:32:32.472Z,20.80
2018-12-16T10:35:01.363Z,17.55
2018-12-16T10:37:29.873Z,20.10
2018-12-16T10:39:58.058Z,21.40
2018-12-16T10:42:26.491Z,20.40
2018-12-16T10:44:54.789Z,20.60
2018-12-16T10:47:23.512Z,21.50
2018-12-16T10:49:52.085Z,21.30
2018-12-16T10:52:20.408Z,20.52
2018-12-16T10:54:49.339Z,21.00
2018-12-16T10:57:17.644Z,21.65
2018-12-16T10:59:46.277Z,19.52
2018-12-16T11:02:14.511Z,23.57
2018-12-16T11:04:42.776Z,23.70
2018-12-16T11:07:11.853Z,24.43
2018-12-16T11:09:40.260Z,21.85
2018-12-16T11:12:08.587Z,23.02
2018-12-16T11:14:36.822Z,23.10
2018-12-16T11:17:05.124Z,21.85
2018-12-16T11:19:33.330Z,23.35
2018-12-16T11:22:01.682Z,23.20
2018-12-16T11:24:29.819Z,22.35
2018-12-16T11:26:59.069Z,22.82
2018-12-16T11:29:27.348Z,23.87
2018-12-16T11:31:55.740Z,26.97
2018-12-16T11:34:24.785Z,22.95
2018-12-16T11:36:53.110Z,22.77
2018-12-16T11:39:21.484Z,22.65
2018-12-16T11:41:49.693Z,25.00
2018-12-16T11:44:18.544Z,25.45
2018-12-16T11:46:47.470Z,22.40
2018-12-16T11:49:15.689Z,24.20
2018-12-16T11:51:45.525Z,19.90
2018-12-16T11:54:13.760Z,16.35
2018-12-16T11:56:42.114Z,22.22
2018-12-16T11:59:12.160Z,23.15
2018-12-16T12:01:40.318Z,21.37
2018-12-16T12:04:08.652Z,26.75
2018-12-16T12:06:36.866Z,24.30
2018-12-16T12:09:05.968Z,23.35
2018-12-16T12:11:34.339Z,22.70
2018-12-16T12:14:02.594Z,21.73
2018-12-16T12:16:30.829Z,23.32
2018-12-16T12:19:00.981Z,23.45
2018-12-16T12:21:29.383Z,21.17
2018-12-16T12:23:58.582Z,24.07
2018-12-16T12:26:26.852Z,23.25
2018-12-16T12:28:55.448Z,23.62
2018-12-16T12:31:24.118Z,18.82
2018-12-16T12:33:52.398Z,26.25
2018-12-16T12:36:21.433Z,23.32
2018-12-16T12:38:49.651Z,24.77
2018-12-16T12:41:18.033Z,25.72
2018-12-16T12:43:46.171Z,23.92
2018-12-16T12:46:14.524Z,23.10
2018-12-16T12:48:43.699Z,22.40
2018-12-16T12:51:11.895Z,24.70
2018-12-16T12:53:41.478Z,23.67
2018-12-16T12:56:09.861Z,18.55
2018-12-16T12:58:38.550Z,25.05
2018-12-16T13:01:06.963Z,25.10
2018-12-16T13:03:35.122Z,23.30
2018-12-16T13:06:03.457Z,23.30
2018-12-16T13:08:31.590Z,25.15
2018-12-16T13:10:59.802Z,17.65
2018-12-16T13:13:27.957Z,20.50
2018-12-16T13:15:56.223Z,24.65
2018-12-16T13:18:25.191Z,23.42
2018-12-16T13:20:53.773Z,23.50
2018-12-16T13:23:23.115Z,21.90
2018-12-16T13:26:04.844Z,23.38
2018-12-16T13:28:33.751Z,20.65
2018-12-16T13:31:02.244Z,23.62
2018-12-16T13:33:30.461Z,23.15
2018-12-16T13:35:59.066Z,24.25
2018-12-16T13:38:27.595Z,21.90
2018-12-16T13:40:55.782Z,24.95
2018-12-16T13:43:24.090Z,25.97
2018-12-16T13:45:52.430Z,19.85
2018-12-16T13:48:20.742Z,27.30
2018-12-16T13:50:48.894Z,26.75
2018-12-16T13:53:17.304Z,26.27
2018-12-16T13:55:47.329Z,21.73
2018-12-16T13:58:16.387Z,25.97
2018-12-16T14:00:45.137Z,24.12
2018-12-16T14:03:13.462Z,22.27
2018-12-16T14:05:46.642Z,24.70
2018-12-16T14:08:13.975Z,27.25
2018-12-16T14:10:42.170Z,27.85
2018-12-16T14:13:10.427Z,30.08
2018-12-16T14:15:38.648Z,28.27
2018-12-16T14:18:07.907Z,30.82
2018-12-16T14:20:36.249Z,29.72
2018-12-16T14:23:04.891Z,32.63
2018-12-16T14:25:33.012Z,31.60
2018-12-16T14:28:01.627Z,32.08
2018-12-16T14:30:30.418Z,30.60
2018-12-16T14:32:58.926Z,31.77
2018-12-16T14:35:27.208Z,30.72
2018-12-16T14:37:56.790Z,30.30
2018-12-16T14:40:25.571Z,30.88
2018-12-16T14:42:54.879Z,29.27
2018-12-16T14:45:23.272Z,32.70
2018-12-16T14:47:51.645Z,30.37
2018-12-16T14:50:19.983Z,30.05
2018-12-16T14:52:48.479Z,28.95
2018-12-16T14:55:16.966Z,30.05
2018-12-16T14:57:45.212Z,29.27
2018-12-16T15:00:14.553Z,34.73
2018-12-16T15:02:42.876Z,26.87
2018-12-16T15:05:11.385Z,27.73
2018-12-16T15:07:39.888Z,29.32
2018-12-16T15:10:09.941Z,31.68
2018-12-16T15:12:38.235Z,28.75
2018-12-16T15:15:08.332Z,29.32
2018-12-16T15:17:42.792Z,34.92
2018-12-16T15:20:08.265Z,31.90
2018-12-16T15:22:36.522Z,27.25
2018-12-16T15:25:05.530Z,27.85
2018-12-16T15:27:34.555Z,28.67
2018-12-16T15:30:03.381Z,28.98
2018-12-16T15:32:32.181Z,30.52
2018-12-16T15:35:00.447Z,29.02
2018-12-16T15:37:29.278Z,33.10
2018-12-16T15:39:58.082Z,27.85
2018-12-16T15:42:26.342Z,30.77
2018-12-16T15:44:54.485Z,29.45
2018-12-16T15:47:22.651Z,29.23
2018-12-16T15:49:50.828Z,33.23
2018-12-16T15:52:19.356Z,29.15
2018-12-16T15:54:48.214Z,28.62
2018-12-16T15:57:16.553Z,33.00
2018-12-16T15:59:45.674Z,31.90
2018-12-16T16:02:13.960Z,33.35
2018-12-16T16:04:42.267Z,36.03
2018-12-16T16:07:10.479Z,39.10
2018-12-16T16:09:38.592Z,37.00
2018-12-16T16:12:06.911Z,36.35
2018-12-16T16:14:35.059Z,37.03
2018-12-16T16:17:03.513Z,38.63
2018-12-16T16:19:31.974Z,46.15
2018-12-16T16:22:01.585Z,33.18
2018-12-16T16:24:29.710Z,30.82
2018-12-16T16:26:58.453Z,29.35
2018-12-16T16:29:27.083Z,30.35
2018-12-16T16:31:55.211Z,30.90
2018-12-16T16:34:23.441Z,29.27
2018-12-16T16:36:51.600Z,34.65
2018-12-16T16:39:20.985Z,31.90
2018-12-16T16:41:50.193Z,31.05
2018-12-16T16:44:18.389Z,31.77
2018-12-16T16:46:46.601Z,42.38
2018-12-16T16:49:15.069Z,30.88
2018-12-16T16:51:43.174Z,29.15
2018-12-16T16:54:12.062Z,30.95
2018-12-16T16:56:41.122Z,35.23
2018-12-16T16:59:10.431Z,32.95
2018-12-16T17:01:38.807Z,35.20
2018-12-16T17:04:07.374Z,33.67
2018-12-16T17:06:36.105Z,36.55
2018-12-16T17:09:07.398Z,34.60
2018-12-16T17:11:35.694Z,32.90
2018-12-16T17:14:04.227Z,32.23
2018-12-16T17:16:33.106Z,36.90
2018-12-16T17:19:01.866Z,30.75
2018-12-16T17:21:30.788Z,33.02
2018-12-16T17:23:59.889Z,32.50
2018-12-16T17:26:30.195Z,30.20
2018-12-16T17:28:58.786Z,30.55
2018-12-16T17:31:27.006Z,31.00
2018-12-16T17:33:56.454Z,30.37
2018-12-16T17:36:25.453Z,32.42
2018-12-16T17:38:54.717Z,32.83
2018-12-16T17:41:23.001Z,31.52
2018-12-16T17:43:51.202Z,33.10
2018-12-16T17:46:19.337Z,44.03
2018-12-16T17:48:47.747Z,38.23
2018-12-16T17:51:17.350Z,27.15
2018-12-16T17:53:45.503Z,25.68
2018-12-16T17:56:13.755Z,73.60
2018-12-16T17:58:42.108Z,37.58
2018-12-16T18:01:11.186Z,31.70
2018-12-16T18:03:39.653Z,29.55
2018-12-16T18:06:07.953Z,33.23
2018-12-16T18:08:36.331Z,31.17
2018-12-16T18:11:04.489Z,30.92
2018-12-16T18:13:32.791Z,30.52
2018-12-16T18:16:01.362Z,30.15
2018-12-16T18:18:29.560Z,30.92
2018-12-16T18:20:57.751Z,38.78
2018-12-16T18:23:29.674Z,73.50
2018-12-16T18:25:56.720Z,106.97
2018-12-16T18:28:26.005Z,31.42
2018-12-16T18:30:54.244Z,29.12
2018-12-16T18:33:22.557Z,31.95
2018-12-16T18:35:51.162Z,32.75
2018-12-16T18:38:19.515Z,31.60
2018-12-16T18:40:47.969Z,28.23
2018-12-16T18:43:16.111Z,32.30
2018-12-16T18:45:44.630Z,32.50
2018-12-16T18:48:13.934Z,28.17
2018-12-16T18:50:43.016Z,28.40
2018-12-16T18:53:11.229Z,30.32
2018-12-16T18:55:39.486Z,32.60
2018-12-16T18:58:08.602Z,27.77
2018-12-16T19:00:36.824Z,31.62
2018-12-16T19:03:04.959Z,27.98
2018-12-16T19:05:33.134Z,25.45
2018-12-16T19:08:01.290Z,27.42
2018-12-16T19:10:30.481Z,28.55
2018-12-16T19:12:58.702Z,28.25
2018-12-16T19:15:27.666Z,32.98
2018-12-16T19:17:55.965Z,30.35
2018-12-16T19:20:24.860Z,33.80
2018-12-16T19:22:53.049Z,31.02
2018-12-16T19:25:21.232Z,34.08
2018-12-16T19:27:55.349Z,32.58
2018-12-16T19:30:23.567Z,30.35
2018-12-16T19:32:51.728Z,31.23
2018-12-16T19:35:21.279Z,34.20
2018-12-16T19:37:49.954Z,29.75
2018-12-16T19:40:18.360Z,30.85
2018-12-16T19:42:46.533Z,31.73
2018-12-16T19:45:14.741Z,33.10
2018-12-16T19:47:49.529Z,31.45
2018-12-16T19:50:13.933Z,28.47
2018-12-16T19:52:42.131Z,31.42
2018-12-16T19:55:10.862Z,27.77
2018-12-16T19:57:39.175Z,29.65
2018-12-16T20:00:08.755Z,31.95
2018-12-16T20:02:37.321Z,31.40
2018-12-16T20:05:09.115Z,36.48
2018-12-16T20:07:37.216Z,38.05
2018-12-16T20:10:05.923Z,44.42
2018-12-16T20:12:34.802Z,37.73
2018-12-16T20:15:03.025Z,34.78
2018-12-16T20:17:32.134Z,35.03
2018-12-16T20:20:00.456Z,32.00
2018-12-16T20:22:28.675Z,30.45
2018-12-16T20:24:57.886Z,30.88
2018-12-16T20:27:25.999Z,28.85
2018-12-16T20:29:55.363Z,30.17
2018-12-16T20:32:23.570Z,30.40
2018-12-16T20:34:52.443Z,33.80
2018-12-16T20:37:21.092Z,35.60
2018-12-16T20:39:49.304Z,41.30
2018-12-16T20:42:17.412Z,36.42
2018-12-16T20:44:46.453Z,34.85
2018-12-16T20:47:14.574Z,37.28
2018-12-16T20:49:43.256Z,35.78
2018-12-16T20:52:11.354Z,36.65
2018-12-16T20:54:39.469Z,34.03
2018-12-16T20:57:07.724Z,32.73
2018-12-16T20:59:37.186Z,33.40
2018-12-16T21:02:05.624Z,30.43
2018-12-16T21:04:33.762Z,35.58
2018-12-16T21:07:02.114Z,35.52
2018-12-16T21:09:30.306Z,31.48
2018-12-16T21:12:00.927Z,30.88
2018-12-16T21:14:35.017Z,32.30
2018-12-16T21:17:08.886Z,29.12
2018-12-16T21:19:37.155Z,31.20
2018-12-16T21:22:10.687Z,33.20
2018-12-16T21:24:39.198Z,38.55
2018-12-16T21:27:08.118Z,38.55
2018-12-16T21:29:36.336Z,38.45
2018-12-16T21:32:07.407Z,34.60
2018-12-16T21:34:35.805Z,32.65
2018-12-16T21:37:04.142Z,30.82
2018-12-16T21:39:32.884Z,33.25
2018-12-16T21:42:01.038Z,33.45
2018-12-16T21:44:29.171Z,30.40
2018-12-16T21:46:57.403Z,29.92
2018-12-16T21:49:26.173Z,28.38
2018-12-16T21:51:54.553Z,29.63
2018-12-16T21:54:22.683Z,32.20
2018-12-16T21:56:51.005Z,35.75
2018-12-16T21:59:19.501Z,32.55
2018-12-16T22:01:47.864Z,30.72
2018-12-16T22:04:15.979Z,30.43
2018-12-16T22:06:44.170Z,28.40
2018-12-16T22:09:13.049Z,29.67
2018-12-16T22:11:41.200Z,28.07
2018-12-16T22:14:09.931Z,31.95
2018-12-16T22:16:38.934Z,33.25
2018-12-16T22:19:07.762Z,31.42
2018-12-16T22:21:36.094Z,32.95
2018-12-16T22:24:04.342Z,33.28
2018-12-16T22:26:32.582Z,38.50
2018-12-16T22:29:01.750Z,31.95
2018-12-16T22:31:30.031Z,32.15
2018-12-16T22:33:58.674Z,35.85
2018-12-16T22:36:28.271Z,34.90
2018-12-16T22:38:56.546Z,32.58
2018-12-16T22:41:24.720Z,31.10
2018-12-16T22:43:53.277Z,33.30
2018-12-16T22:46:22.130Z,34.00
2018-12-16T22:48:50.541Z,35.10
2018-12-16T22:51:19.242Z,36.38
2018-12-16T22:53:47.449Z,35.10
2018-12-16T22:56:15.678Z,36.77
2018-12-16T22:58:43.978Z,38.05
2018-12-16T23:01:17.678Z,39.10
2018-12-16T23:03:46.097Z,39.60
2018-12-16T23:06:15.349Z,36.30
2018-12-16T23:08:43.850Z,37.50
2018-12-16T23:11:12.423Z,33.95
2018-12-16T23:13:41.354Z,35.03
2018-12-16T23:16:09.630Z,43.95
2018-12-16T23:18:37.818Z,42.13
2018-12-16T23:21:06.995Z,38.78
2018-12-16T23:23:35.405Z,39.67
2018-12-16T23:26:03.941Z,43.05
2018-12-16T23:28:32.840Z,36.40
2018-12-16T23:31:01.305Z,40.03
2018-12-16T23:33:31.443Z,42.40
2018-12-16T23:35:59.704Z,38.17
2018-12-16T23:38:28.008Z,40.28
2018-12-16T23:40:56.589Z,41.60
2018-12-16T23:43:24.870Z,45.12
2018-12-16T23:45:53.165Z,36.20
2018-12-16T23:48:21.798Z,38.55
2018-12-16T23:50:51.559Z,36.80
2018-12-16T23:53:20.017Z,38.85
2018-12-16T23:55:48.427Z,33.30
2018-12-16T23:58:18.237Z,36.95
